createdAt,value
2023-01-31T00:01:21.883Z,101720.25
2023-01-31T00:03:52.352Z,101724.97
2023-01-31T00:06:20.601Z,101726.59
2023-01-31T00:08:54.017Z,101721.66
2023-01-31T00:11:28.029Z,101718.38
2023-01-31T00:13:57.967Z,101726.34
2023-01-31T00:16:27.420Z,101729.66
2023-01-31T00:18:54.113Z,101722.47
2023-01-31T00:21:27.759Z,101727.56
2023-01-31T00:23:58.543Z,101733.94
2023-01-31T00:26:30.378Z,101734.56
2023-01-31T00:28:57.668Z,101735.59
2023-01-31T00:31:27.965Z,101734.97
2023-01-31T00:34:00.413Z,101734.56
2023-01-31T00:36:30.809Z,101732.31
2023-01-31T00:38:58.262Z,101724.97
2023-01-31T00:41:25.562Z,101739.88
2023-01-31T00:43:52.295Z,101729.25
2023-01-31T00:46:25.416Z,101723.94
2023-01-31T00:48:56.642Z,101719.00
2023-01-31T00:51:26.505Z,101720.63
2023-01-31T00:54:00.267Z,101719.81
2023-01-31T00:56:35.696Z,101719.00
2023-01-31T00:59:13.101Z,101720.63
2023-01-31T01:01:45.917Z,101725.72
2023-01-31T01:04:18.614Z,101723.06
2023-01-31T01:06:47.630Z,101717.72
2023-01-31T01:09:17.451Z,101711.53
2023-01-31T01:11:44.577Z,101714.84
2023-01-31T01:14:19.843Z,101719.75
2023-01-31T01:16:50.197Z,101713.56
2023-01-31T01:19:21.759Z,101720.13
2023-01-31T01:21:49.898Z,101721.34
2023-01-31T01:24:17.997Z,101724.00
2023-01-31T01:26:45.126Z,101725.00
2023-01-31T01:29:14.934Z,101730.31
2023-01-31T01:31:43.234Z,101737.47
2023-01-31T01:34:17.004Z,101734.19
2023-01-31T01:36:46.756Z,101733.31
2023-01-31T01:39:16.561Z,101742.13
2023-01-31T01:41:43.284Z,101737.88
2023-01-31T01:44:29.324Z,101739.31
2023-01-31T01:46:55.893Z,101743.81
2023-01-31T01:49:26.855Z,101730.31
2023-01-31T01:51:57.173Z,101747.13
2023-01-31T01:54:33.545Z,101744.47
2023-01-31T01:57:02.032Z,101750.59
2023-01-31T01:59:36.675Z,101749.19
2023-01-31T02:02:07.513Z,101751.44
2023-01-31T02:04:36.131Z,101753.28
2023-01-31T02:07:05.595Z,101751.22
2023-01-31T02:09:32.573Z,101758.81
2023-01-31T02:12:01.941Z,101753.47
2023-01-31T02:14:29.406Z,101753.47
2023-01-31T02:16:56.295Z,101750.81
2023-01-31T02:19:41.761Z,101754.31
2023-01-31T02:22:23.953Z,101758.19
2023-01-31T02:25:17.059Z,101759.03
2023-01-31T02:27:56.111Z,101748.38
2023-01-31T02:30:47.009Z,101747.94
2023-01-31T02:33:13.796Z,101748.88
2023-01-31T02:35:46.141Z,101747.44
2023-01-31T02:38:14.371Z,101741.69
2023-01-31T02:40:48.215Z,101749.25
2023-01-31T02:43:15.273Z,101746.06
2023-01-31T02:46:08.253Z,101752.16
2023-01-31T02:48:36.573Z,101748.47
2023-01-31T02:51:12.756Z,101737.84
2023-01-31T02:53:48.439Z,101736.19
2023-01-31T02:56:27.829Z,101742.28
2023-01-31T02:58:58.741Z,101738.34
2023-01-31T03:01:29.384Z,101737.47
2023-01-31T03:04:04.556Z,101739.25
2023-01-31T03:06:33.656Z,101744.69
2023-01-31T03:09:22.124Z,101749.47
2023-01-31T03:11:55.667Z,101746.28
2023-01-31T03:14:23.151Z,101750.72
2023-01-31T03:17:18.791Z,101747.34
2023-01-31T03:19:54.516Z,101745.97
2023-01-31T03:22:26.281Z,101754.38
2023-01-31T03:24:55.172Z,101745.53
2023-01-31T03:27:22.546Z,101756.69
2023-01-31T03:29:59.725Z,101752.94
2023-01-31T03:32:33.829Z,101756.06
2023-01-31T03:35:08.150Z,101753.41
2023-01-31T03:37:40.621Z,101757.22
2023-01-31T03:40:15.220Z,101760.81
2023-01-31T03:42:51.915Z,101762.00
2023-01-31T03:45:38.533Z,101766.47
2023-01-31T03:48:10.420Z,101768.13
2023-01-31T03:50:45.244Z,101770.16
2023-01-31T03:53:20.337Z,101777.81
2023-01-31T03:55:53.597Z,101779.81
2023-01-31T03:58:22.751Z,101777.53
2023-01-31T04:00:52.563Z,101785.50
2023-01-31T04:03:24.821Z,101788.69
2023-01-31T04:05:51.632Z,101789.88
2023-01-31T04:08:23.013Z,101786.22
2023-01-31T04:10:59.888Z,101771.97
2023-01-31T04:13:28.973Z,101765.38
2023-01-31T04:15:55.579Z,101774.03
2023-01-31T04:18:24.035Z,101782.72
2023-01-31T04:20:50.891Z,101780.22
2023-01-31T04:23:20.771Z,101784.34
2023-01-31T04:25:47.482Z,101787.31
2023-01-31T04:28:23.378Z,101793.25
2023-01-31T04:30:54.494Z,101780.72
2023-01-31T04:33:27.296Z,101779.22
2023-01-31T04:35:56.811Z,101787.16
2023-01-31T04:42:47.326Z,101790.44
2023-01-31T04:45:14.016Z,101775.53
2023-01-31T04:48:10.576Z,101774.06
2023-01-31T04:51:00.399Z,101774.72
2023-01-31T04:53:30.807Z,101774.72
2023-01-31T05:00:32.184Z,101776.00
2023-01-31T05:03:27.174Z,101768.94
2023-01-31T05:06:00.449Z,101770.84
2023-01-31T05:08:27.134Z,101766.06
2023-01-31T05:18:10.205Z,101760.13
2023-01-31T05:20:46.191Z,101758.41
2023-01-31T05:23:14.009Z,101765.38
2023-01-31T05:25:43.707Z,101759.41
2023-01-31T05:29:02.174Z,101769.38
2023-01-31T05:35:52.997Z,101754.47
2023-01-31T05:38:19.921Z,101769.72
2023-01-31T05:41:07.473Z,101767.44
2023-01-31T05:44:27.720Z,101771.72
2023-01-31T05:47:03.938Z,101770.03
2023-01-31T05:49:33.768Z,101764.72
2023-01-31T05:56:27.348Z,101764.78
2023-01-31T06:02:42.191Z,101755.47
2023-01-31T06:05:16.603Z,101759.69
2023-01-31T06:11:35.974Z,101770.19
2023-01-31T06:14:17.907Z,101775.69
2023-01-31T06:20:21.986Z,101780.59
2023-01-31T06:22:55.357Z,101785.53
2023-01-31T06:28:31.718Z,101785.25
2023-01-31T06:31:26.795Z,101777.09
2023-01-31T06:37:09.376Z,101778.56
2023-01-31T06:39:44.156Z,101767.59
2023-01-31T06:42:32.051Z,101777.72
2023-01-31T06:58:38.481Z,101789.34
2023-01-31T07:01:42.304Z,101793.94
2023-01-31T07:04:15.133Z,101789.63
2023-01-31T07:06:49.210Z,101788.63
2023-01-31T07:13:31.691Z,101804.13
2023-01-31T07:16:28.875Z,101803.06
2023-01-31T07:19:23.440Z,101812.28
2023-01-31T07:21:50.287Z,101815.13
2023-01-31T07:25:01.791Z,101821.09
2023-01-31T07:27:37.195Z,101821.91
2023-01-31T07:30:32.549Z,101824.06
2023-01-31T07:33:17.295Z,101836.19
2023-01-31T07:35:53.346Z,101849.13
2023-01-31T07:38:19.982Z,101842.00
2023-01-31T07:41:11.399Z,101849.66
2023-01-31T07:43:47.138Z,101846.88
2023-01-31T07:46:20.142Z,101853.88
2023-01-31T07:48:53.220Z,101854.69
2023-01-31T07:52:11.564Z,101849.22
2023-01-31T07:54:41.508Z,101847.53
2023-01-31T07:57:17.796Z,101850.34
2023-01-31T07:59:48.399Z,101846.16
2023-01-31T08:06:09.813Z,101842.81
2023-01-31T08:09:14.153Z,101846.94
2023-01-31T08:11:50.572Z,101848.06
2023-01-31T08:15:02.412Z,101843.41
2023-01-31T08:17:34.698Z,101841.06
2023-01-31T08:20:01.366Z,101844.69
2023-01-31T13:37:34.970Z,101519.47
2023-01-31T13:40:04.039Z,101513.75
2023-01-31T13:42:33.567Z,101527.47
2023-01-31T13:45:02.676Z,101527.06
2023-01-31T13:47:33.032Z,101542.16
2023-01-31T13:50:18.058Z,101547.03
2023-01-31T13:52:47.550Z,101544.22
2023-01-31T13:55:20.660Z,101536.03
2023-01-31T13:57:56.515Z,101540.53
2023-01-31T14:00:30.877Z,101546.25
2023-01-31T14:03:02.931Z,101556.50
2023-01-31T14:05:45.015Z,101549.94
2023-01-31T14:08:27.618Z,101540.53
2023-01-31T14:11:00.925Z,101551.75
2023-01-31T14:13:33.476Z,101546.25
2023-01-31T14:16:02.197Z,101540.09
2023-01-31T14:18:43.051Z,101531.50
2023-01-31T14:21:28.404Z,101524.97
2023-01-31T14:23:55.562Z,101528.66
2023-01-31T14:26:40.795Z,101530.91
2023-01-31T14:29:08.549Z,101529.44
2023-01-31T14:31:35.051Z,101529.44
2023-01-31T14:34:02.349Z,101534.81
2023-01-31T14:36:31.874Z,101528.31
2023-01-31T14:39:10.575Z,101521.34
2023-01-31T14:42:00.428Z,101531.97
2023-01-31T14:44:52.738Z,101531.00
2023-01-31T14:47:31.534Z,101534.47
2023-01-31T14:49:58.943Z,101535.69
2023-01-31T14:52:25.630Z,101532.59
2023-01-31T14:54:55.764Z,101536.13
2023-01-31T14:57:25.955Z,101537.94
2023-01-31T15:00:01.922Z,101543.47
2023-01-31T15:02:31.831Z,101540.19
2023-01-31T15:05:01.401Z,101538.16
2023-01-31T15:07:28.890Z,101546.78
2023-01-31T15:09:56.209Z,101539.59
2023-01-31T15:12:41.972Z,101534.28
2023-01-31T15:15:20.312Z,101530.56
2023-01-31T15:17:47.942Z,101531.00
2023-01-31T15:20:31.415Z,101528.34
2023-01-31T15:23:05.088Z,101531.03
2023-01-31T15:25:41.049Z,101520.16
2023-01-31T15:28:08.269Z,101527.50
2023-01-31T15:30:35.485Z,101520.16
2023-01-31T15:33:09.391Z,101518.09
2023-01-31T15:35:44.780Z,101520.97
2023-01-31T15:38:28.869Z,101530.41
2023-01-31T15:41:14.428Z,101520.97
2023-01-31T15:43:44.894Z,101527.13
2023-01-31T15:46:15.103Z,101530.81
2023-01-31T15:48:43.302Z,101534.50
2023-01-31T15:51:12.831Z,101538.00
2023-01-31T15:53:39.816Z,101531.22
2023-01-31T15:56:10.749Z,101541.88
2023-01-31T15:58:37.781Z,101554.56
2023-01-31T16:01:04.730Z,101538.59
2023-01-31T16:03:33.711Z,101536.97
2023-01-31T16:06:01.456Z,101549.25
2023-01-31T16:08:29.125Z,101554.56
2023-01-31T16:10:56.592Z,101555.81
2023-01-31T16:13:23.701Z,101558.28
2023-01-31T16:15:50.636Z,101555.38
2023-01-31T16:18:18.117Z,101550.47
2023-01-31T16:20:46.279Z,101557.25
2023-01-31T16:23:27.268Z,101545.97
2023-01-31T16:26:00.140Z,101561.34
2023-01-31T16:28:28.365Z,101562.38
2023-01-31T16:30:55.035Z,101550.88
2023-01-31T16:33:23.523Z,101547.59
2023-01-31T16:36:12.855Z,101534.50
2023-01-31T16:38:44.310Z,101544.34
2023-01-31T16:41:13.017Z,101527.94
2023-01-31T16:43:41.406Z,101537.78
2023-01-31T16:46:21.738Z,101536.53
2023-01-31T16:49:01.658Z,101536.97
2023-01-31T16:51:28.624Z,101549.25
2023-01-31T16:54:14.018Z,101544.72
2023-01-31T16:56:41.235Z,101537.78
2023-01-31T16:59:28.844Z,101543.50
2023-01-31T17:02:01.102Z,101534.50
2023-01-31T17:04:27.869Z,101535.50
2023-01-31T17:07:06.432Z,101525.47
2023-01-31T17:09:37.387Z,101525.47
2023-01-31T17:12:06.414Z,101512.16
2023-01-31T17:14:37.327Z,101523.22
2023-01-31T17:17:07.118Z,101522.63
2023-01-31T17:19:33.954Z,101525.69
2023-01-31T17:22:00.632Z,101531.22
2023-01-31T17:24:27.482Z,101529.56
2023-01-31T17:26:54.421Z,101524.66
2023-01-31T17:29:21.857Z,101525.47
2023-01-31T17:31:48.429Z,101519.75
2023-01-31T17:34:18.795Z,101534.69
2023-01-31T17:36:45.715Z,101531.41
2023-01-31T17:39:12.325Z,101532.84
2023-01-31T17:41:41.378Z,101536.13
2023-01-31T17:44:11.743Z,101530.81
2023-01-31T17:46:38.284Z,101529.59
2023-01-31T17:49:04.895Z,101527.13
2023-01-31T17:51:31.455Z,101524.47
2023-01-31T17:53:58.234Z,101518.94
2023-01-31T17:56:24.778Z,101520.97
2023-01-31T17:58:51.963Z,101520.16
2023-01-31T18:01:18.806Z,101521.81
2023-01-31T18:03:45.870Z,101531.22
2023-01-31T18:06:12.354Z,101533.25
2023-01-31T18:08:39.894Z,101536.97
2023-01-31T18:11:08.230Z,101544.75
2023-01-31T18:13:37.848Z,101534.50
2023-01-31T18:16:12.753Z,101532.88
2023-01-31T18:18:40.599Z,101538.00
2023-01-31T18:21:14.905Z,101535.34
2023-01-31T18:23:41.532Z,101524.69
2023-01-31T18:26:10.126Z,101520.97
2023-01-31T18:28:37.212Z,101520.34
2023-01-31T18:31:04.934Z,101521.59
2023-01-31T18:33:32.999Z,101504.38
2023-01-31T18:36:01.058Z,101507.84
2023-01-31T18:38:28.227Z,101501.31
2023-01-31T18:40:54.924Z,101493.50
2023-01-31T18:43:21.575Z,101495.56
2023-01-31T18:45:48.121Z,101491.25
2023-01-31T18:48:14.844Z,101498.00
2023-01-31T18:50:41.321Z,101493.50
2023-01-31T18:53:08.013Z,101499.69
2023-01-31T18:55:34.635Z,101510.34
2023-01-31T18:58:01.269Z,101510.53
2023-01-31T19:00:27.822Z,101509.91
2023-01-31T19:02:54.828Z,101506.63
2023-01-31T19:05:22.618Z,101504.59
2023-01-31T19:07:49.339Z,101503.78
2023-01-31T19:10:16.116Z,101495.16
2023-01-31T19:12:42.656Z,101502.72
2023-01-31T19:15:10.776Z,101505.63
2023-01-31T19:17:37.425Z,101507.47
2023-01-31T19:20:04.679Z,101508.69
2023-01-31T19:22:31.290Z,101518.13
2023-01-31T19:24:58.379Z,101517.28
2023-01-31T19:27:24.985Z,101515.03
2023-01-31T19:29:51.635Z,101526.31
2023-01-31T19:32:18.358Z,101522.59
2023-01-31T19:34:48.220Z,101514.03
2023-01-31T19:37:18.062Z,101512.97
2023-01-31T19:39:44.673Z,101505.19
2023-01-31T19:42:17.579Z,101507.25
2023-01-31T19:44:44.369Z,101507.47
2023-01-31T19:47:14.146Z,101513.41
2023-01-31T19:49:40.835Z,101513.41
2023-01-31T19:52:08.596Z,101513.78
2023-01-31T19:54:36.913Z,101516.69
2023-01-31T19:57:03.533Z,101515.22
2023-01-31T19:59:33.365Z,101509.28
2023-01-31T20:02:08.741Z,101511.34
2023-01-31T20:04:36.569Z,101510.34
2023-01-31T20:07:05.652Z,101504.59
2023-01-31T20:09:32.248Z,101500.06
2023-01-31T20:11:58.839Z,101502.94
2023-01-31T20:14:27.733Z,101505.59
2023-01-31T20:16:54.371Z,101501.25
2023-01-31T20:19:26.700Z,101512.28
2023-01-31T20:25:00.262Z,101502.88
2023-01-31T20:27:27.041Z,101506.56
2023-01-31T20:29:56.297Z,101495.91
2023-01-31T20:32:31.753Z,101500.44
2023-01-31T20:34:58.360Z,101495.13
2023-01-31T20:37:28.957Z,101495.94
2023-01-31T20:39:55.868Z,101492.03
2023-01-31T20:42:31.490Z,101498.59
2023-01-31T20:45:01.365Z,101495.31
2023-01-31T20:47:30.781Z,101486.91
2023-01-31T20:49:57.483Z,101487.75
2023-01-31T20:52:26.334Z,101491.00
2023-01-31T20:54:56.620Z,101487.53
2023-01-31T20:57:23.328Z,101486.53
2023-01-31T20:59:58.576Z,101482.44
2023-01-31T21:02:26.763Z,101482.88
2023-01-31T21:04:56.326Z,101481.22
2023-01-31T21:07:25.962Z,101473.44
2023-01-31T21:09:59.047Z,101474.25
2023-01-31T21:12:36.448Z,101473.44
2023-01-31T21:15:09.057Z,101476.91
2023-01-31T21:17:40.682Z,101491.25
2023-01-31T21:20:14.466Z,101501.28
2023-01-31T21:22:42.094Z,101519.47
2023-01-31T21:25:11.607Z,101516.00
2023-01-31T21:27:41.746Z,101518.47
2023-01-31T21:30:15.352Z,101522.94
2023-01-31T21:32:41.975Z,101521.75
2023-01-31T21:35:11.470Z,101528.69
2023-01-31T21:37:41.181Z,101525.22
2023-01-31T21:40:10.381Z,101512.34
2023-01-31T21:42:42.952Z,101499.88
2023-01-31T21:45:12.696Z,101499.88
2023-01-31T21:48:00.116Z,101506.03
2023-01-31T21:50:27.161Z,101507.88
2023-01-31T21:52:54.338Z,101506.44
2023-01-31T21:55:22.644Z,101515.63
2023-01-31T21:57:51.388Z,101531.22
2023-01-31T22:00:18.547Z,101513.59
2023-01-31T22:02:56.136Z,101508.25
2023-01-31T22:05:23.067Z,101510.31
2023-01-31T22:07:50.229Z,101499.63
2023-01-31T22:10:17.474Z,101493.31
2023-01-31T22:12:44.070Z,101486.53
2023-01-31T22:15:10.926Z,101489.44
2023-01-31T22:17:39.156Z,101490.63
2023-01-31T22:20:09.375Z,101479.59
2023-01-31T22:22:36.193Z,101482.47
2023-01-31T22:25:10.661Z,101475.06
2023-01-31T22:27:38.124Z,101472.00
2023-01-31T22:30:16.701Z,101470.38
2023-01-31T22:32:46.119Z,101474.66
2023-01-31T22:35:15.426Z,101470.38
2023-01-31T22:37:44.571Z,101465.84
2023-01-31T22:40:14.177Z,101472.84
2023-01-31T22:42:43.789Z,101459.50
2023-01-31T22:45:13.678Z,101447.41
2023-01-31T22:47:42.804Z,101455.38
2023-01-31T22:50:12.294Z,101440.25
2023-01-31T22:52:38.993Z,101432.25
2023-01-31T22:55:17.354Z,101423.84
2023-01-31T22:57:56.680Z,101417.25
2023-01-31T23:00:23.460Z,101415.66
2023-01-31T23:02:53.264Z,101400.91
2023-01-31T23:05:23.461Z,101405.81
2023-01-31T23:07:56.602Z,101396.59
2023-01-31T23:10:26.781Z,101388.59
2023-01-31T23:12:53.830Z,101375.28
2023-01-31T23:15:21.628Z,101373.03
2023-01-31T23:17:56.269Z,101384.53
2023-01-31T23:20:28.015Z,101396.00
2023-01-31T23:22:58.564Z,101413.22
2023-01-31T23:25:32.270Z,101424.66
2023-01-31T23:27:58.997Z,101429.16
2023-01-31T23:30:26.238Z,101431.22
2023-01-31T23:32:55.613Z,101440.03
2023-01-31T23:35:24.363Z,101441.03
2023-01-31T23:37:54.056Z,101437.31
2023-01-31T23:40:23.853Z,101442.22
2023-01-31T23:42:50.765Z,101440.16
2023-01-31T23:45:18.616Z,101437.94
2023-01-31T23:47:50.365Z,101432.41
2023-01-31T23:50:18.010Z,101431.75
2023-01-31T23:52:44.812Z,101443.44
2023-01-31T23:55:11.414Z,101438.94
2023-01-31T23:57:37.972Z,101431.97
